Login to view products.  
Wednesday, December 13, 2017 (12:54 UTC)
Ras Al Khaimah International Airport
ICAO Code: OMRK
IATA Code: RKT
  • METAR OMRK 131200Z 35013KT 9999 FEW040 24/07 Q1016 A3001=
  • TAF OMRK 131056Z 1312/1418 35010KT 8000 FEW035 BECMG 1312/1315 11008KT PROB30 TEMPO 1404/1415 11018KT 4000 BLDU BECMG 1410/1412 34013KT BECMG 1412/1414 10008KT=